createdAt,value
2023-04-20T00:00:48.062Z,4.15
2023-04-20T00:01:48.037Z,4.15
2023-04-20T00:02:47.983Z,4.16
2023-04-20T00:03:48.059Z,4.18
2023-04-20T00:04:47.760Z,4.22
2023-04-20T00:05:47.622Z,4.18
2023-04-20T00:06:47.531Z,4.25
2023-04-20T00:07:47.465Z,4.23
2023-04-20T00:08:47.370Z,4.18
2023-04-20T00:09:47.276Z,4.16
2023-04-20T00:10:47.188Z,4.23
2023-04-20T00:11:47.109Z,4.25
2023-04-20T00:12:47.029Z,4.37
2023-04-20T00:13:46.930Z,4.30
2023-04-20T00:14:46.846Z,4.38
2023-04-20T00:15:46.764Z,4.28
2023-04-20T00:16:46.736Z,4.23
2023-04-20T00:17:46.743Z,4.25
2023-04-20T00:18:46.547Z,4.34
2023-04-20T00:19:46.417Z,4.25
2023-04-20T00:20:46.401Z,4.34
2023-04-20T00:21:46.244Z,4.25
2023-04-20T00:22:46.156Z,4.23
2023-04-20T00:23:46.072Z,4.15
2023-04-20T00:24:45.986Z,4.15
2023-04-20T00:25:45.911Z,4.15
2023-04-20T00:26:45.826Z,4.16
2023-04-20T00:27:45.729Z,4.08
2023-04-20T00:28:45.640Z,3.98
2023-04-20T00:29:45.564Z,4.01
2023-04-20T00:30:45.490Z,3.83
2023-04-20T00:31:45.383Z,3.87
2023-04-20T00:32:45.310Z,3.82
2023-04-20T00:33:45.216Z,3.80
2023-04-20T00:34:45.473Z,3.80
2023-04-20T00:35:45.041Z,3.80
2023-04-20T00:36:44.997Z,3.74
2023-04-20T00:37:44.915Z,3.71
2023-04-20T00:38:44.842Z,3.59
2023-04-20T00:39:44.691Z,3.62
2023-04-20T00:41:44.516Z,3.57
2023-04-20T00:42:44.432Z,3.54
2023-04-20T00:43:44.344Z,3.62
2023-04-20T00:44:44.309Z,3.57
2023-04-20T00:45:44.169Z,3.56
2023-04-20T00:46:44.154Z,3.66
2023-04-20T00:47:44.314Z,3.65
2023-04-20T00:48:43.912Z,3.61
2023-04-20T00:49:43.832Z,3.62
2023-04-20T00:50:43.748Z,3.68
2023-04-20T00:51:43.651Z,3.59
2023-04-20T00:55:43.333Z,3.56
2023-04-20T00:56:43.220Z,3.56
2023-04-20T00:57:43.133Z,3.51
2023-04-20T00:58:43.049Z,3.39
2023-04-20T00:59:43.016Z,3.41
2023-04-20T01:00:42.885Z,3.31
2023-04-20T01:01:42.976Z,3.22
2023-04-20T01:02:42.772Z,3.27
2023-04-20T01:03:42.747Z,3.25
2023-04-20T01:04:42.534Z,3.22
2023-04-20T01:05:42.441Z,3.32
2023-04-20T01:06:42.364Z,3.43
2023-04-20T01:07:42.274Z,3.43
2023-04-20T01:08:42.181Z,3.37
2023-04-20T01:09:42.096Z,3.37
2023-04-20T01:10:42.014Z,3.35
2023-04-20T01:11:41.948Z,3.22
2023-04-20T01:12:41.837Z,3.21
2023-04-20T01:13:41.748Z,3.11
2023-04-20T01:14:41.667Z,3.14
2023-04-20T01:15:41.586Z,3.10
2023-04-20T01:16:41.497Z,3.16
2023-04-20T01:17:41.439Z,3.13
2023-04-20T01:18:41.318Z,3.13
2023-04-20T01:19:41.232Z,3.14
2023-04-20T01:20:41.140Z,3.11
2023-04-20T01:21:41.054Z,3.21
2023-04-20T01:22:40.970Z,3.24
2023-04-20T01:23:40.891Z,3.25
2023-04-20T01:24:40.793Z,3.28
2023-04-20T01:25:40.709Z,3.24
2023-04-20T01:26:40.669Z,3.27
2023-04-20T01:27:40.549Z,3.16
2023-04-20T01:28:40.457Z,3.17
2023-04-20T01:29:40.361Z,3.28
2023-04-20T01:30:40.272Z,3.21
2023-04-20T01:31:40.301Z,3.14
2023-04-20T01:32:40.199Z,3.16
2023-04-20T01:33:40.014Z,3.19
2023-04-20T01:34:39.927Z,3.09
2023-04-20T01:35:39.844Z,2.99
2023-04-20T01:36:40.303Z,3.11
2023-04-20T01:37:39.714Z,3.16
2023-04-20T01:38:39.593Z,3.16
2023-04-20T01:39:39.587Z,3.16
2023-04-20T01:40:39.406Z,3.13
2023-04-20T01:41:39.339Z,3.13
2023-04-20T01:42:39.232Z,3.07
2023-04-20T01:43:39.232Z,3.11
2023-04-20T01:44:39.071Z,3.09
2023-04-20T01:45:39.126Z,3.07
2023-04-20T01:46:38.934Z,3.10
2023-04-20T01:47:38.814Z,3.09
2023-04-20T01:48:38.711Z,3.03
2023-04-20T01:49:38.626Z,3.13
2023-04-20T01:50:38.565Z,3.17
2023-04-20T01:51:38.605Z,3.32
2023-04-20T01:52:38.366Z,3.31
2023-04-20T01:53:38.280Z,3.31
2023-04-20T01:54:38.194Z,3.29
2023-04-20T01:55:38.104Z,3.43
2023-04-20T01:56:38.022Z,3.27
2023-04-20T01:57:37.946Z,3.44
2023-04-20T01:58:37.849Z,3.35
2023-04-20T01:59:37.845Z,3.44
2023-04-20T02:00:37.772Z,3.56
2023-04-20T02:01:37.604Z,3.64
2023-04-20T02:02:37.646Z,3.64
2023-04-20T02:03:37.574Z,3.64
2023-04-20T02:04:37.327Z,3.53
2023-04-20T02:05:37.241Z,3.61
2023-04-20T02:06:37.154Z,3.59
2023-04-20T02:07:37.073Z,3.61
2023-04-20T02:08:37.034Z,3.54
2023-04-20T02:09:36.895Z,3.54
2023-04-20T02:10:36.804Z,3.53
2023-04-20T02:11:36.725Z,3.46
2023-04-20T02:12:36.641Z,3.57
2023-04-20T02:13:36.548Z,3.57
2023-04-20T02:14:36.460Z,3.62
2023-04-20T02:15:36.398Z,3.72
2023-04-20T02:16:36.326Z,3.74
2023-04-20T02:17:36.241Z,3.82
2023-04-20T02:18:36.114Z,3.72
2023-04-20T02:19:36.085Z,3.71
2023-04-20T02:20:35.940Z,3.80
2023-04-20T02:21:35.856Z,3.87
2023-04-20T02:22:36.121Z,3.79
2023-04-20T02:23:35.684Z,3.87
2023-04-20T02:24:35.601Z,3.86
2023-04-20T02:25:35.519Z,3.93
2023-04-20T02:26:35.421Z,4.02
2023-04-20T02:27:35.337Z,4.01
2023-04-20T02:28:35.252Z,4.10
2023-04-20T02:29:35.173Z,4.16
2023-04-20T02:30:35.125Z,4.12
2023-04-20T02:31:35.051Z,4.20
2023-04-20T02:32:34.955Z,4.15
2023-04-20T02:33:34.836Z,4.12
2023-04-20T02:34:34.739Z,4.23
2023-04-20T02:35:34.646Z,4.34
2023-04-20T02:36:34.562Z,4.28
2023-04-20T02:37:34.844Z,4.40
2023-04-20T02:38:34.385Z,4.43
2023-04-20T02:39:34.602Z,4.41
2023-04-20T02:40:34.214Z,4.54
2023-04-20T02:41:34.132Z,4.59
2023-04-20T02:42:34.070Z,4.72
2023-04-20T02:43:33.962Z,4.68
2023-04-20T02:44:33.870Z,4.77
2023-04-20T02:45:33.789Z,4.68
2023-04-20T02:46:33.753Z,4.74
2023-04-20T02:47:33.811Z,4.87
2023-04-20T02:48:33.534Z,5.00
2023-04-20T02:49:33.446Z,4.99
2023-04-20T02:50:33.360Z,5.02
2023-04-20T02:51:33.275Z,4.91
2023-04-20T02:52:33.195Z,4.98
2023-04-20T02:53:33.100Z,4.93
2023-04-20T02:54:33.018Z,4.92
2023-04-20T02:55:32.945Z,5.00
2023-04-20T02:56:32.845Z,4.88
2023-04-20T02:57:32.810Z,4.56
2023-04-20T02:58:32.874Z,4.40
2023-04-20T02:59:32.591Z,4.16
2023-04-20T03:00:32.503Z,4.12
2023-04-20T03:01:32.475Z,3.89
2023-04-20T03:02:32.499Z,3.79
2023-04-20T03:03:32.393Z,3.80
2023-04-20T03:04:32.234Z,3.87
2023-04-20T03:05:32.076Z,3.98
2023-04-20T03:06:31.990Z,4.00
2023-04-20T03:07:31.913Z,4.01
2023-04-20T03:08:31.822Z,3.92
2023-04-20T03:09:31.743Z,3.83
2023-04-20T03:10:31.648Z,3.90
2023-04-20T03:11:31.561Z,3.94
2023-04-20T03:12:31.478Z,4.00
2023-04-20T03:13:31.390Z,3.93
2023-04-20T03:14:31.321Z,3.93
2023-04-20T03:15:31.225Z,3.94
2023-04-20T03:16:31.174Z,3.98
2023-04-20T03:17:31.069Z,4.11
2023-04-20T03:18:30.958Z,4.02
2023-04-20T03:19:30.891Z,4.02
2023-04-20T03:20:30.787Z,4.02
2023-04-20T03:21:30.699Z,4.02
2023-04-20T03:22:30.616Z,4.04
2023-04-20T03:23:30.526Z,4.11
2023-04-20T03:24:30.438Z,4.04
2023-04-20T03:25:30.363Z,4.07
2023-04-20T03:26:30.327Z,4.05
2023-04-20T03:27:30.180Z,3.97
2023-04-20T03:28:30.151Z,3.82
2023-04-20T03:29:30.206Z,3.80
2023-04-20T03:30:29.920Z,3.68
2023-04-20T03:31:30.165Z,3.59
2023-04-20T03:32:32.572Z,3.44
2023-04-20T03:33:29.662Z,3.39
2023-04-20T03:34:29.575Z,3.35
2023-04-20T03:35:29.683Z,3.21
2023-04-20T03:36:29.413Z,3.32
2023-04-20T03:37:29.319Z,3.34
2023-04-20T03:38:29.263Z,3.34
2023-04-20T03:39:29.148Z,3.39
2023-04-20T03:40:29.097Z,3.41
2023-04-20T03:41:29.069Z,3.43
2023-04-20T03:42:28.891Z,3.35
2023-04-20T03:43:28.793Z,3.39
2023-04-20T03:44:28.710Z,3.19
2023-04-20T03:45:28.673Z,3.21
2023-04-20T03:46:28.645Z,3.09
2023-04-20T03:47:28.503Z,3.04
2023-04-20T03:48:28.383Z,2.99
2023-04-20T03:49:28.278Z,2.91
2023-04-20T03:50:28.193Z,2.81
2023-04-20T03:51:28.119Z,2.80
2023-04-20T03:52:28.221Z,2.77
2023-04-20T03:54:27.845Z,2.91
2023-04-20T03:55:27.756Z,2.81
2023-04-20T03:56:27.671Z,2.92
2023-04-20T03:57:27.586Z,2.88
2023-04-20T03:58:27.498Z,2.81
2023-04-20T03:59:27.457Z,2.80
2023-04-20T04:00:27.318Z,2.70
2023-04-20T04:01:27.239Z,2.70
2023-04-20T04:02:27.226Z,2.67
2023-04-20T04:03:27.152Z,2.73
2023-04-20T04:04:27.164Z,2.63
2023-04-20T04:05:27.058Z,2.70
2023-04-20T04:06:26.798Z,2.67
2023-04-20T04:07:26.748Z,2.66
2023-04-20T04:08:26.624Z,2.68
2023-04-20T04:09:26.541Z,2.66
2023-04-20T04:10:26.456Z,2.63
2023-04-20T04:11:26.372Z,2.67
2023-04-20T04:12:26.277Z,2.68
2023-04-20T04:13:34.398Z,2.67
2023-04-20T04:14:26.108Z,2.73
2023-04-20T04:15:26.013Z,2.77
2023-04-20T04:16:25.962Z,2.84
2023-04-20T04:17:25.875Z,2.80
2023-04-20T04:18:25.753Z,2.86
2023-04-20T04:19:25.668Z,2.85
2023-04-20T04:20:25.597Z,2.89
2023-04-20T04:21:25.502Z,2.84
2023-04-20T04:22:25.406Z,2.78
2023-04-20T04:23:25.343Z,2.78
2023-04-20T04:24:25.233Z,2.80
2023-04-20T04:25:25.148Z,2.68
2023-04-20T04:26:25.059Z,2.78
2023-04-20T04:27:24.972Z,2.67
2023-04-20T04:28:24.881Z,2.63
2023-04-20T04:29:24.795Z,2.77
2023-04-20T04:30:24.714Z,2.67
2023-04-20T04:31:24.767Z,2.77
2023-04-20T04:32:24.624Z,2.81
2023-04-20T04:33:24.449Z,2.67
2023-04-20T04:34:24.363Z,2.78
2023-04-20T04:35:24.371Z,2.71
2023-04-20T04:36:24.212Z,2.70
2023-04-20T04:37:24.104Z,2.70
2023-04-20T04:38:24.018Z,2.68
2023-04-20T04:39:23.954Z,2.85
2023-04-20T04:40:23.846Z,2.93
2023-04-20T04:41:23.750Z,3.06
2023-04-20T04:42:23.670Z,2.98
2023-04-20T04:43:23.576Z,3.13
2023-04-20T04:44:23.493Z,3.01
2023-04-20T04:45:23.404Z,2.98
2023-04-20T04:46:23.352Z,3.06
2023-04-20T04:47:23.277Z,2.91
2023-04-20T04:48:23.152Z,2.99
2023-04-20T04:49:23.058Z,2.96
2023-04-20T04:50:22.972Z,3.06
2023-04-20T04:51:22.881Z,3.09
2023-04-20T04:52:22.809Z,3.14
2023-04-20T04:53:22.753Z,3.14
2023-04-20T04:54:22.643Z,3.11
2023-04-20T04:55:22.590Z,3.14
2023-04-20T04:56:22.452Z,3.13
2023-04-20T04:57:22.366Z,3.14
2023-04-20T04:58:22.280Z,3.17
2023-04-20T04:59:22.392Z,3.19
2023-04-20T05:00:22.107Z,3.17
2023-04-20T05:01:22.103Z,3.17
2023-04-20T05:02:22.090Z,3.21
2023-04-20T05:03:21.983Z,3.16
2023-04-20T05:04:21.999Z,3.27
2023-04-20T05:05:21.766Z,3.29
2023-04-20T05:06:21.643Z,3.35
2023-04-20T05:07:21.519Z,3.41
2023-04-20T05:08:21.448Z,3.47
2023-04-20T05:09:21.324Z,3.56
2023-04-20T05:10:21.248Z,3.57
2023-04-20T05:11:21.171Z,3.64
2023-04-20T05:12:21.060Z,3.59
2023-04-20T05:13:20.987Z,3.62
2023-04-20T05:14:20.890Z,3.79
2023-04-20T05:15:20.798Z,3.83
2023-04-20T05:16:20.786Z,3.90
2023-04-20T05:17:20.697Z,3.89
2023-04-20T05:18:20.740Z,3.97
2023-04-20T05:19:20.903Z,4.02
2023-04-20T05:20:20.367Z,4.00
2023-04-20T05:21:20.280Z,4.12
2023-04-20T05:22:20.596Z,4.04
2023-04-20T05:23:20.125Z,4.16
2023-04-20T05:24:20.025Z,4.26
2023-04-20T05:25:19.942Z,4.26
2023-04-20T05:26:19.854Z,4.30
2023-04-20T05:27:19.783Z,4.32
2023-04-20T05:28:19.680Z,4.34
2023-04-20T05:29:19.769Z,4.38
2023-04-20T05:30:21.830Z,4.37
2023-04-20T05:31:19.445Z,4.52
2023-04-20T05:32:19.421Z,4.50
2023-04-20T05:33:19.250Z,4.52
2023-04-20T05:34:19.222Z,4.54
2023-04-20T05:35:19.090Z,4.62
2023-04-20T05:36:18.996Z,4.68
2023-04-20T05:37:18.914Z,4.64
2023-04-20T05:38:18.825Z,4.50
2023-04-20T05:39:18.902Z,4.59
2023-04-20T05:40:18.688Z,4.73
2023-04-20T05:41:18.566Z,4.74
2023-04-20T05:42:18.559Z,4.80
2023-04-20T05:43:18.419Z,4.83
2023-04-20T05:44:18.312Z,4.74
2023-04-20T05:45:18.242Z,4.77
2023-04-20T05:46:18.178Z,4.76
2023-04-20T05:47:18.106Z,4.73
2023-04-20T05:48:18.365Z,4.69
2023-04-20T05:49:18.008Z,4.69
2023-04-20T05:50:17.799Z,4.69
2023-04-20T05:51:17.735Z,4.65
2023-04-20T05:52:17.633Z,4.69
2023-04-20T05:53:17.543Z,4.68
2023-04-20T05:54:17.468Z,4.69
2023-04-20T05:55:18.488Z,4.64
2023-04-20T05:56:17.299Z,4.66
2023-04-20T05:57:17.272Z,4.61
2023-04-20T05:58:17.155Z,4.55
2023-04-20T05:59:17.371Z,4.56
2023-04-20T06:00:16.947Z,4.62
2023-04-20T06:01:16.938Z,4.58
2023-04-20T06:02:16.898Z,4.65
2023-04-20T06:03:17.160Z,4.64
2023-04-20T06:04:16.993Z,4.69
2023-04-20T06:05:16.554Z,4.80
2023-04-20T06:06:16.869Z,4.85
2023-04-20T06:07:16.350Z,4.80
2023-04-20T06:08:16.265Z,4.96
2023-04-20T06:09:16.402Z,4.88
2023-04-20T06:10:16.094Z,4.99
2023-04-20T06:11:16.009Z,5.02
2023-04-20T06:12:16.026Z,5.08
2023-04-20T06:13:15.838Z,5.18
2023-04-20T06:14:15.776Z,5.17
2023-04-20T06:15:15.721Z,5.17
2023-04-20T06:16:15.606Z,5.17
2023-04-20T06:17:15.512Z,5.17
2023-04-20T06:18:15.416Z,5.17
2023-04-20T06:19:15.453Z,5.21
2023-04-20T06:20:15.248Z,5.17
2023-04-20T06:21:15.161Z,5.21
2023-04-20T06:22:15.086Z,5.23
2023-04-20T06:23:14.993Z,5.35
2023-04-20T06:24:14.915Z,5.31
2023-04-20T06:25:14.840Z,5.34
2023-04-20T06:26:14.739Z,5.35
2023-04-20T06:27:14.652Z,5.38
2023-04-20T06:28:14.593Z,5.45
2023-04-20T06:29:14.523Z,5.45
2023-04-20T06:30:14.398Z,5.38
2023-04-20T06:31:14.540Z,5.47
2023-04-20T06:32:14.224Z,5.56
2023-04-20T06:33:14.140Z,5.56
2023-04-20T06:34:14.058Z,5.63
2023-04-20T06:35:13.987Z,5.65
2023-04-20T06:36:14.038Z,5.80
2023-04-20T06:37:14.409Z,5.88
2023-04-20T06:38:13.720Z,5.86
2023-04-20T06:39:13.639Z,5.90
2023-04-20T06:40:16.037Z,6.00
2023-04-20T06:41:13.467Z,6.00
2023-04-20T06:42:13.378Z,5.89
2023-04-20T06:43:13.293Z,5.89
2023-04-20T06:44:13.208Z,5.93
2023-04-20T06:45:13.129Z,6.10
2023-04-20T06:46:13.308Z,6.10
2023-04-20T06:47:13.025Z,6.14
2023-04-20T06:48:29.953Z,6.37
2023-04-20T06:49:12.786Z,6.27
2023-04-20T06:50:12.703Z,6.50
2023-04-20T06:51:12.617Z,6.52
2023-04-20T06:52:12.551Z,6.55
2023-04-20T06:53:12.455Z,6.68
2023-04-20T06:54:12.367Z,6.73
2023-04-20T06:55:12.280Z,6.80
2023-04-20T06:56:12.406Z,6.88
2023-04-20T06:57:12.120Z,6.93
2023-04-20T06:58:12.036Z,7.05
2023-04-20T06:59:11.945Z,7.19
2023-04-20T07:00:11.868Z,7.27
2023-04-20T07:01:11.818Z,7.26
2023-04-20T07:02:11.836Z,7.30
2023-04-20T07:03:11.819Z,7.39
2023-04-20T07:04:11.610Z,7.27
2023-04-20T07:05:11.454Z,7.13
2023-04-20T07:06:11.577Z,6.99
2023-04-20T07:07:11.287Z,6.96
2023-04-20T07:08:11.201Z,6.99
2023-04-20T07:09:11.118Z,7.12
2023-04-20T07:10:11.098Z,7.19
2023-04-20T07:11:10.950Z,7.16
2023-04-20T07:12:10.871Z,7.19
2023-04-20T07:13:10.788Z,7.27
2023-04-20T07:14:10.742Z,7.27
2023-04-20T07:15:10.621Z,7.13
2023-04-20T07:16:10.692Z,7.27
2023-04-20T07:17:10.486Z,7.24
2023-04-20T07:18:10.567Z,7.34
2023-04-20T07:19:10.313Z,7.44
2023-04-20T07:20:10.208Z,7.59
2023-04-20T07:21:10.120Z,7.72
2023-04-20T07:22:10.035Z,7.72
2023-04-20T07:23:09.963Z,7.75
2023-04-20T07:24:09.874Z,7.85
2023-04-20T07:25:09.789Z,8.09
2023-04-20T07:26:09.708Z,8.19
2023-04-20T07:27:09.663Z,8.24
2023-04-20T07:28:09.551Z,8.24
2023-04-20T07:29:09.484Z,8.33
2023-04-20T07:30:09.386Z,8.33
2023-04-20T07:31:09.332Z,8.25
2023-04-20T07:32:09.324Z,8.27
2023-04-20T07:33:09.240Z,8.32
2023-04-20T07:34:09.061Z,8.42
2023-04-20T07:35:09.387Z,8.58
2023-04-20T07:36:08.892Z,8.69
2023-04-20T07:37:08.796Z,8.84
2023-04-20T07:38:08.719Z,8.93
2023-04-20T07:39:08.672Z,8.94
2023-04-20T07:40:08.561Z,8.94
2023-04-20T07:41:08.553Z,8.97
2023-04-20T07:42:08.386Z,9.09
2023-04-20T07:43:08.340Z,9.14
2023-04-20T07:44:08.224Z,9.12
2023-04-20T07:45:08.149Z,8.88
2023-04-20T07:46:08.073Z,8.85
2023-04-20T07:47:07.977Z,8.88
2023-04-20T07:48:08.103Z,8.84
2023-04-20T07:49:07.822Z,8.94
2023-04-20T07:50:07.806Z,8.90
2023-04-20T07:51:08.489Z,8.90
2023-04-20T07:52:16.262Z,8.85
2023-04-20T07:53:07.481Z,9.00
2023-04-20T07:54:07.395Z,9.03
2023-04-20T07:55:07.317Z,9.12
2023-04-20T07:56:07.240Z,9.22
2023-04-20T07:57:07.153Z,9.28
2023-04-20T07:58:07.372Z,9.17
2023-04-20T07:59:06.988Z,9.05
2023-04-20T08:00:06.900Z,8.95
2023-04-20T08:01:07.142Z,9.28
2023-04-20T08:02:06.806Z,9.20
2023-04-20T08:03:06.869Z,9.43
2023-04-20T08:04:06.871Z,9.47
2023-04-20T08:05:06.647Z,9.60
2023-04-20T08:06:06.641Z,9.43
2023-04-20T08:07:06.659Z,9.63
2023-04-20T08:08:06.253Z,9.75
2023-04-20T08:09:06.165Z,9.88
2023-04-20T08:10:58.576Z,9.68
2023-04-20T08:11:58.493Z,9.64
2023-04-20T08:12:58.502Z,9.70
2023-04-20T08:13:58.570Z,9.74
2023-04-20T08:14:58.236Z,9.93
2023-04-20T08:15:58.165Z,9.96
2023-04-20T08:16:58.074Z,9.90
2023-04-20T08:17:58.069Z,10.13
2023-04-20T08:18:57.908Z,10.16
2023-04-20T08:19:57.826Z,10.15
2023-04-20T08:20:57.749Z,10.16
2023-04-20T08:21:57.658Z,10.26
2023-04-20T08:22:57.600Z,10.29
2023-04-20T08:23:57.497Z,10.33
2023-04-20T08:24:57.426Z,10.25
2023-04-20T08:25:57.340Z,10.33
2023-04-20T08:26:57.254Z,10.31
2023-04-20T08:27:57.474Z,10.37
2023-04-20T08:28:57.087Z,10.49
2023-04-20T08:29:57.016Z,10.46
2023-04-20T08:30:56.966Z,10.77
2023-04-20T08:31:56.960Z,10.85
2023-04-20T08:32:56.816Z,10.80
2023-04-20T08:33:56.903Z,10.66
2023-04-20T08:34:56.597Z,10.34
2023-04-20T08:35:56.513Z,10.37
2023-04-20T08:36:56.474Z,10.33
2023-04-20T08:37:56.350Z,10.31
2023-04-20T08:38:56.393Z,10.13
2023-04-20T08:39:56.187Z,10.00
2023-04-20T08:40:56.113Z,9.89
2023-04-20T08:41:56.021Z,9.88
2023-04-20T08:42:55.944Z,9.65
2023-04-20T08:43:55.860Z,9.70
2023-04-20T08:44:55.794Z,9.74
2023-04-20T08:45:55.705Z,9.79
2023-04-20T08:46:55.737Z,9.80
2023-04-20T08:47:55.601Z,9.78
2023-04-20T08:48:55.470Z,9.97
2023-04-20T08:49:55.366Z,9.98
2023-04-20T08:50:55.304Z,10.03
2023-04-20T08:51:55.205Z,10.15
2023-04-20T08:52:55.125Z,10.31
2023-04-20T08:53:55.048Z,10.29
2023-04-20T08:54:57.460Z,10.29
2023-04-20T08:55:54.879Z,10.43
2023-04-20T08:56:55.201Z,10.60
2023-04-20T08:57:54.723Z,10.69
2023-04-20T08:58:54.637Z,10.85
2023-04-20T08:59:54.650Z,10.81
2023-04-20T09:00:54.477Z,10.93
2023-04-20T09:01:54.407Z,11.05
2023-04-20T09:02:54.514Z,11.23
2023-04-20T09:03:54.528Z,11.31
2023-04-20T09:04:54.304Z,11.36
2023-04-20T09:05:54.070Z,11.05
2023-04-20T09:06:53.992Z,11.06
2023-04-20T09:07:53.908Z,11.17
2023-04-20T09:08:53.884Z,11.32
2023-04-20T09:09:53.748Z,11.57
2023-04-20T09:10:53.698Z,11.56
2023-04-20T09:11:53.788Z,11.57
2023-04-20T09:12:53.509Z,11.68
2023-04-20T09:13:56.350Z,11.67
2023-04-20T09:24:11.596Z,11.57
2023-04-20T09:25:11.519Z,11.71
2023-04-20T09:26:11.478Z,11.46
2023-04-20T09:27:11.353Z,11.23
2023-04-20T09:28:11.276Z,11.06
2023-04-20T09:29:11.194Z,10.91
2023-04-20T09:30:11.114Z,10.98
2023-04-20T09:31:11.038Z,11.02
2023-04-20T09:32:11.023Z,11.10
2023-04-20T09:33:11.014Z,11.18
2023-04-20T09:34:11.107Z,11.20
2023-04-20T09:35:10.716Z,11.31
2023-04-20T09:36:10.642Z,11.46
2023-04-20T09:37:10.554Z,11.50
2023-04-20T09:38:10.475Z,11.64
2023-04-20T09:39:10.397Z,11.84
2023-04-20T09:40:10.322Z,11.97
2023-04-20T09:41:10.237Z,12.12
2023-04-20T09:42:10.171Z,12.00
2023-04-20T09:43:10.075Z,12.02
2023-04-20T09:44:10.004Z,12.08
2023-04-20T09:45:09.915Z,12.09
2023-04-20T09:46:09.855Z,12.15
2023-04-20T09:47:09.757Z,12.21
2023-04-20T09:48:09.685Z,12.42
2023-04-20T09:49:09.598Z,12.19
2023-04-20T09:50:22.868Z,11.93
2023-04-20T09:51:09.443Z,11.90
2023-04-20T09:52:09.361Z,11.95
2023-04-20T09:53:09.511Z,12.13
2023-04-20T09:54:09.237Z,12.16
2023-04-20T09:55:09.121Z,12.27
2023-04-20T09:56:09.042Z,12.51
2023-04-20T09:57:08.960Z,12.74
2023-04-20T09:58:08.918Z,12.69
2023-04-20T09:59:08.956Z,12.66
2023-04-20T10:00:08.726Z,12.51
2023-04-20T10:01:08.666Z,12.30
2023-04-20T10:02:08.653Z,12.23
2023-04-20T10:03:08.729Z,12.33
2023-04-20T10:04:08.931Z,12.41
2023-04-20T10:05:08.369Z,12.44
2023-04-20T10:06:08.299Z,12.45
2023-04-20T10:08:08.092Z,12.19
2023-04-20T10:09:08.258Z,12.08
2023-04-20T10:10:07.965Z,11.89
2023-04-20T10:11:07.853Z,11.79
2023-04-20T10:12:07.811Z,11.87
2023-04-20T10:13:07.734Z,11.83
2023-04-20T10:14:08.061Z,11.54
2023-04-20T10:15:07.585Z,11.50
2023-04-20T10:16:07.696Z,11.38
2023-04-20T10:17:07.649Z,11.49
2023-04-20T10:18:07.390Z,11.61
2023-04-20T10:19:09.052Z,11.75
2023-04-20T10:20:07.442Z,12.12
2023-04-20T10:21:07.097Z,12.41
2023-04-20T10:22:07.010Z,12.60
2023-04-20T10:23:06.959Z,12.56
2023-04-20T10:24:07.366Z,12.78
2023-04-20T10:25:06.776Z,12.94
2023-04-20T10:26:06.705Z,12.86
2023-04-20T10:27:06.586Z,12.96
2023-04-20T10:28:06.499Z,12.99
2023-04-20T10:29:06.427Z,12.99
2023-04-20T10:30:06.536Z,12.86
2023-04-20T10:31:06.274Z,12.78
2023-04-20T10:32:06.189Z,12.82
2023-04-20T10:33:06.154Z,12.89
2023-04-20T10:34:06.035Z,12.94
2023-04-20T10:35:05.952Z,12.64
2023-04-20T10:36:06.022Z,12.61
2023-04-20T10:37:05.800Z,12.88
2023-04-20T10:38:05.711Z,13.10
2023-04-20T10:39:05.651Z,13.27
2023-04-20T10:40:07.752Z,13.48
2023-04-20T10:41:06.030Z,13.73
2023-04-20T10:42:05.404Z,13.92
2023-04-20T10:43:05.321Z,13.84
2023-04-20T10:44:05.242Z,13.84
2023-04-20T10:45:05.616Z,13.65
2023-04-20T10:46:05.201Z,13.62
2023-04-20T10:47:05.007Z,13.48
2023-04-20T10:48:04.972Z,13.41
2023-04-20T10:49:04.866Z,13.33
2023-04-20T10:50:04.836Z,13.43
2023-04-20T10:51:04.694Z,13.38
2023-04-20T10:52:04.672Z,13.53
2023-04-20T10:53:04.538Z,13.65
2023-04-20T10:54:04.470Z,13.52
2023-04-20T10:55:04.382Z,13.74
2023-04-20T10:56:04.803Z,13.86
2023-04-20T10:57:04.235Z,13.99
2023-04-20T10:58:04.150Z,14.21
2023-04-20T10:59:04.074Z,14.31
2023-04-20T11:00:03.993Z,14.17
2023-04-20T11:01:03.924Z,14.17
2023-04-20T11:02:04.315Z,14.36
2023-04-20T11:03:03.849Z,14.35
2023-04-20T11:04:03.717Z,14.11
2023-04-20T11:05:03.668Z,13.86
2023-04-20T11:06:03.675Z,13.33
2023-04-20T11:07:03.458Z,12.92
2023-04-20T11:08:03.377Z,12.86
2023-04-20T11:09:03.352Z,12.70
2023-04-20T11:10:03.230Z,12.67
2023-04-20T11:11:03.154Z,12.67
2023-04-20T11:12:03.068Z,12.59
2023-04-20T11:13:03.006Z,12.41
2023-04-20T11:14:02.915Z,12.27
2023-04-20T11:15:02.925Z,12.24
2023-04-20T11:16:02.783Z,12.21
2023-04-20T11:17:02.824Z,12.09
2023-04-20T11:18:02.658Z,12.11
2023-04-20T11:19:02.524Z,12.19
2023-04-20T11:20:02.448Z,12.24
2023-04-20T11:21:02.369Z,12.19
2023-04-20T11:22:02.289Z,12.18
2023-04-20T11:23:02.215Z,12.16
2023-04-20T11:24:02.132Z,12.23
2023-04-20T11:25:02.059Z,12.30
2023-04-20T11:26:01.972Z,12.36
2023-04-20T11:27:01.956Z,12.46
2023-04-20T11:28:01.818Z,12.51
2023-04-20T11:29:01.786Z,12.71
2023-04-20T11:30:01.655Z,12.82
2023-04-20T11:31:01.602Z,12.96
2023-04-20T11:32:01.670Z,13.03
2023-04-20T11:33:01.518Z,13.19
2023-04-20T11:34:01.467Z,13.32
2023-04-20T11:35:06.577Z,13.37
2023-04-20T11:36:01.190Z,13.38
2023-04-20T11:37:01.110Z,13.29
2023-04-20T11:38:01.045Z,13.17
2023-04-20T11:39:00.956Z,13.11
2023-04-20T11:40:01.126Z,13.06
2023-04-20T11:41:00.797Z,13.10
2023-04-20T11:42:00.733Z,13.07
2023-04-20T11:43:00.647Z,13.10
2023-04-20T11:44:00.585Z,13.11
2023-04-20T11:45:00.536Z,13.09
2023-04-20T11:46:00.437Z,13.02
2023-04-20T11:47:00.342Z,13.07
2023-04-20T11:48:00.289Z,13.03
2023-04-20T11:49:00.174Z,12.88
2023-04-20T11:50:00.153Z,12.82
2023-04-20T11:51:00.022Z,12.97
2023-04-20T11:51:59.944Z,13.10
2023-04-20T11:52:59.861Z,13.02
2023-04-20T11:53:59.783Z,13.04
2023-04-20T11:54:59.722Z,13.68
2023-04-20T11:55:59.628Z,14.24
2023-04-20T11:56:59.903Z,15.13
2023-04-20T11:57:59.483Z,15.18
2023-04-20T11:58:59.394Z,15.42
2023-04-20T11:59:59.325Z,15.41
2023-04-20T12:01:01.866Z,16.04
2023-04-20T12:01:59.318Z,15.23
2023-04-20T12:02:59.146Z,14.85
2023-04-20T12:03:59.391Z,14.47
2023-04-20T12:04:59.341Z,14.05
2023-04-20T12:05:58.925Z,13.86
2023-04-20T12:06:58.896Z,13.81
2023-04-20T12:07:58.711Z,13.81
2023-04-20T12:08:58.646Z,13.86
2023-04-20T12:10:58.887Z,13.87
2023-04-20T12:11:58.695Z,13.89
2023-04-20T12:12:58.433Z,13.62
2023-04-20T12:13:58.306Z,13.36
2023-04-20T12:14:58.183Z,13.18
2023-04-20T12:15:58.188Z,13.09
2023-04-20T12:16:58.672Z,13.02
2023-04-20T12:17:58.288Z,12.86
2023-04-20T12:18:57.888Z,12.99
2023-04-20T12:19:57.803Z,13.02
2023-04-20T12:20:57.773Z,13.06
2023-04-20T12:21:57.685Z,13.15
2023-04-20T12:22:58.963Z,13.14
2023-04-20T12:23:57.693Z,13.03
2023-04-20T12:24:57.421Z,12.97
2023-04-20T12:25:57.338Z,12.96
2023-04-20T12:26:57.259Z,12.60
2023-04-20T12:27:57.186Z,12.66
2023-04-20T12:28:57.113Z,12.49
2023-04-20T12:29:57.030Z,12.52
2023-04-20T12:30:56.988Z,12.44
2023-04-20T12:31:56.904Z,12.26
2023-04-20T12:32:56.874Z,12.15
2023-04-20T12:33:56.772Z,12.08
2023-04-20T12:34:56.637Z,12.05
2023-04-20T12:35:56.560Z,11.98
2023-04-20T12:36:56.487Z,11.98
2023-04-20T12:37:56.442Z,12.09
2023-04-20T12:38:56.519Z,12.02
2023-04-20T12:39:56.245Z,11.97
2023-04-20T12:40:56.162Z,12.02
2023-04-20T12:41:56.085Z,11.94
2023-04-20T12:42:56.004Z,12.09
2023-04-20T12:43:55.926Z,12.23
2023-04-20T12:44:55.949Z,12.08
2023-04-20T12:45:55.775Z,12.12
2023-04-20T12:46:55.800Z,12.11
2023-04-20T12:47:57.837Z,12.09
2023-04-20T12:48:55.545Z,12.06
2023-04-20T12:49:55.472Z,12.19
2023-04-20T12:50:55.448Z,12.18
2023-04-20T12:51:55.299Z,12.41
2023-04-20T12:52:55.215Z,12.49
2023-04-20T12:53:55.170Z,12.49
2023-04-20T12:54:55.066Z,12.41
2023-04-20T12:56:00.807Z,12.44
2023-04-20T12:56:55.109Z,12.46
2023-04-20T12:57:54.822Z,12.42
2023-04-20T12:58:54.748Z,12.28
2023-04-20T12:59:54.659Z,12.31
2023-04-20T13:00:54.685Z,12.19
2023-04-20T13:01:54.554Z,12.36
2023-04-20T13:02:54.667Z,12.33
2023-04-20T13:03:54.803Z,12.41
2023-04-20T13:04:54.270Z,12.49
2023-04-20T13:05:54.192Z,12.55
2023-04-20T13:06:54.262Z,12.51
2023-04-20T13:07:54.032Z,12.26
2023-04-20T13:08:53.955Z,12.24
2023-04-20T13:09:53.972Z,12.11
2023-04-20T13:10:53.804Z,12.06
2023-04-20T13:11:53.715Z,12.08
2023-04-20T13:12:53.638Z,12.15
2023-04-20T13:13:53.559Z,12.15
2023-04-20T13:14:53.477Z,12.18
2023-04-20T13:15:53.438Z,12.03
2023-04-20T13:16:55.127Z,12.11
2023-04-20T13:17:53.310Z,12.02
2023-04-20T13:18:53.161Z,12.00
2023-04-20T13:19:53.092Z,12.08
2023-04-20T13:20:53.009Z,11.81
2023-04-20T13:21:52.937Z,11.75
2023-04-20T13:22:57.433Z,11.69
2023-04-20T13:23:54.040Z,11.78
2023-04-20T13:24:52.832Z,11.68